createdAt,value
2023-04-15T00:01:49.350Z,3.50
2023-04-15T00:04:16.549Z,3.50
2023-04-15T00:06:43.664Z,3.50
2023-04-15T00:09:10.593Z,3.50
2023-04-15T00:11:37.581Z,3.50
2023-04-15T00:14:04.828Z,3.40
2023-04-15T00:16:31.830Z,3.40
2023-04-15T00:18:59.221Z,3.40
2023-04-15T00:21:27.721Z,3.40
2023-04-15T00:23:54.911Z,3.50
2023-04-15T00:26:22.333Z,3.50
2023-04-15T00:28:49.378Z,3.50
2023-04-15T00:31:16.589Z,3.50
2023-04-15T00:33:43.812Z,3.40
2023-04-15T00:36:11.359Z,3.40
2023-04-15T00:38:39.444Z,3.50
2023-04-15T00:41:06.672Z,3.40
2023-04-15T00:43:33.869Z,3.50
2023-04-15T00:46:03.984Z,3.40
2023-04-15T00:48:32.440Z,3.40
2023-04-15T00:50:59.595Z,3.40
2023-04-15T00:53:26.621Z,3.50
2023-04-15T00:55:54.503Z,3.50
2023-04-15T00:58:21.853Z,3.40
2023-04-15T01:00:49.413Z,3.40
2023-04-15T01:03:16.469Z,3.50
2023-04-15T01:05:43.754Z,3.40
2023-04-15T01:08:10.744Z,3.50
2023-04-15T01:10:37.959Z,3.40
2023-04-15T01:13:05.194Z,3.50
2023-04-15T01:15:32.522Z,3.50
2023-04-15T01:18:00.031Z,3.50
2023-04-15T01:20:27.694Z,3.50
2023-04-15T01:22:55.830Z,3.60
2023-04-15T01:25:42.600Z,3.60
2023-04-15T01:28:09.907Z,3.60
2023-04-15T01:30:37.150Z,3.60
2023-04-15T01:33:04.465Z,3.60
2023-04-15T01:35:32.334Z,3.60
2023-04-15T01:38:10.670Z,3.60
2023-04-15T01:40:37.944Z,3.70
2023-04-15T01:43:04.965Z,3.60
2023-04-15T01:45:32.468Z,3.60
2023-04-15T01:47:59.485Z,3.60
2023-04-15T01:50:27.222Z,3.60
2023-04-15T01:52:54.263Z,3.60
2023-04-15T01:55:21.330Z,3.60
2023-04-15T01:57:48.277Z,3.70
2023-04-15T02:00:15.653Z,3.60
2023-04-15T02:02:43.077Z,3.70
2023-04-15T02:05:11.085Z,3.70
2023-04-15T02:07:38.133Z,3.70
2023-04-15T02:10:05.425Z,3.70
2023-04-15T02:12:32.348Z,3.80
2023-04-15T02:14:59.376Z,3.70
2023-04-15T02:17:26.830Z,3.80
2023-04-15T02:19:53.779Z,3.80
2023-04-15T02:22:20.842Z,3.80
2023-04-15T02:24:47.994Z,3.80
2023-04-15T02:27:18.451Z,3.80
2023-04-15T02:29:46.167Z,3.80
2023-04-15T02:32:13.909Z,3.90
2023-04-15T02:34:42.815Z,3.80
2023-04-15T02:37:13.694Z,3.90
2023-04-15T02:39:40.701Z,3.90
2023-04-15T02:42:07.694Z,3.90
2023-04-15T02:44:36.666Z,3.90
2023-04-15T02:47:05.146Z,3.90
2023-04-15T02:49:32.093Z,3.90
2023-04-15T02:52:00.217Z,3.90
2023-04-15T02:54:30.459Z,3.90
2023-04-15T02:56:57.550Z,3.90
2023-04-15T02:59:24.737Z,3.90
2023-04-15T03:01:51.729Z,3.90
2023-04-15T03:04:18.891Z,4.00
2023-04-15T03:06:46.398Z,3.90
2023-04-15T03:09:13.389Z,3.90
2023-04-15T03:11:42.170Z,4.00
2023-04-15T03:14:09.190Z,3.90
2023-04-15T03:16:36.392Z,3.90
2023-04-15T03:19:03.530Z,4.00
2023-04-15T03:21:31.018Z,4.00
2023-04-15T03:23:57.938Z,4.00
2023-04-15T03:26:33.931Z,4.00
2023-04-15T03:29:01.529Z,4.00
2023-04-15T03:31:28.716Z,4.00
2023-04-15T03:33:55.967Z,4.00
2023-04-15T03:36:23.042Z,4.00
2023-04-15T03:38:50.289Z,3.90
2023-04-15T03:41:17.537Z,3.90
2023-04-15T03:43:44.440Z,3.90
2023-04-15T03:46:11.412Z,3.90
2023-04-15T03:48:38.484Z,4.00
2023-04-15T03:51:06.001Z,4.00
2023-04-15T03:53:32.933Z,4.00
2023-04-15T03:55:59.925Z,4.10
2023-04-15T03:58:26.872Z,4.00
2023-04-15T04:00:56.968Z,4.00
2023-04-15T04:03:24.200Z,4.00
2023-04-15T04:05:51.571Z,4.00
2023-04-15T04:08:19.670Z,4.00
2023-04-15T04:10:46.633Z,4.00
2023-04-15T04:13:13.552Z,4.00
2023-04-15T04:15:40.941Z,4.10
2023-04-15T04:18:07.967Z,4.00
2023-04-15T04:20:35.063Z,4.10
2023-04-15T04:23:02.041Z,4.10
2023-04-15T04:25:29.125Z,4.00
2023-04-15T04:27:56.136Z,4.10
2023-04-15T04:30:23.288Z,4.10
2023-04-15T04:32:51.263Z,4.10
2023-04-15T04:35:18.236Z,4.20
2023-04-15T04:37:45.324Z,4.20
2023-04-15T04:40:12.875Z,4.20
2023-04-15T04:42:40.263Z,4.20
2023-04-15T04:45:07.697Z,4.20
2023-04-15T04:47:34.773Z,4.20
2023-04-15T04:50:01.755Z,4.20
2023-04-15T04:52:28.917Z,4.20
2023-04-15T04:54:55.972Z,4.30
2023-04-15T04:57:22.971Z,4.30
2023-04-15T04:59:50.014Z,4.30
2023-04-15T05:02:17.248Z,4.30
2023-04-15T05:04:44.302Z,4.20
2023-04-15T05:07:11.608Z,4.30
2023-04-15T05:09:38.666Z,4.30
2023-04-15T05:12:05.984Z,4.30
2023-04-15T05:14:33.409Z,4.30
2023-04-15T05:17:00.407Z,4.40
2023-04-15T05:19:27.324Z,4.50
2023-04-15T05:21:54.338Z,4.50
2023-04-15T05:24:21.612Z,4.50
2023-04-15T05:26:48.589Z,4.60
2023-04-15T05:29:15.562Z,4.60
2023-04-15T05:31:43.201Z,4.60
2023-04-15T05:34:11.809Z,4.50
2023-04-15T05:36:38.881Z,4.70
2023-04-15T05:39:05.945Z,4.70
2023-04-15T05:41:32.994Z,4.70
2023-04-15T05:44:00.050Z,4.80
2023-04-15T05:46:27.776Z,4.90
2023-04-15T05:48:56.362Z,5.00
2023-04-15T05:51:23.850Z,4.90
2023-04-15T05:53:51.234Z,5.00
2023-04-15T05:56:18.141Z,5.10
2023-04-15T05:58:45.059Z,5.20
2023-04-15T06:01:12.140Z,5.20
2023-04-15T06:03:39.843Z,5.40
2023-04-15T06:06:07.810Z,5.40
2023-04-15T06:08:34.844Z,5.50
2023-04-15T06:11:04.364Z,5.40
2023-04-15T06:13:31.416Z,5.40
2023-04-15T06:15:58.737Z,5.60
2023-04-15T06:18:25.708Z,5.70
2023-04-15T06:20:52.762Z,5.80
2023-04-15T06:23:19.760Z,5.90
2023-04-15T06:25:46.779Z,6.70
2023-04-15T06:28:14.887Z,7.40
2023-04-15T06:30:41.907Z,7.80
2023-04-15T06:33:10.672Z,8.90
2023-04-15T06:35:37.786Z,8.60
2023-04-15T06:38:05.229Z,8.40
2023-04-15T06:40:35.661Z,8.80
2023-04-15T06:43:02.664Z,8.30
2023-04-15T06:45:35.651Z,8.70
2023-04-15T06:48:02.734Z,8.40
2023-04-15T06:50:29.848Z,8.90
2023-04-15T06:52:57.701Z,8.50
2023-04-15T06:55:29.000Z,7.90
2023-04-15T06:57:55.934Z,8.50
2023-04-15T07:00:23.335Z,8.60
2023-04-15T07:02:51.445Z,9.50
2023-04-15T07:05:19.133Z,9.20
2023-04-15T07:07:46.278Z,8.70
2023-04-15T07:10:15.102Z,8.70
2023-04-15T07:12:42.116Z,7.80
2023-04-15T07:15:09.458Z,8.90
2023-04-15T07:17:37.221Z,9.00
2023-04-15T07:20:05.170Z,8.50
2023-04-15T07:22:32.157Z,9.10
2023-04-15T07:24:59.233Z,9.60
2023-04-15T07:27:26.692Z,9.20
2023-04-15T07:29:54.255Z,8.60
2023-04-15T07:32:22.094Z,9.20
2023-04-15T07:34:49.241Z,9.50
2023-04-15T07:37:16.428Z,9.40
2023-04-15T07:39:43.832Z,8.90
2023-04-15T07:42:10.945Z,8.40
2023-04-15T07:44:37.991Z,9.20
2023-04-15T07:47:05.011Z,9.70
2023-04-15T07:49:32.263Z,8.60
2023-04-15T07:52:00.302Z,8.60
2023-04-15T07:54:27.604Z,8.40
2023-04-15T07:56:54.626Z,8.60
2023-04-15T07:59:21.740Z,8.50
2023-04-15T08:01:49.138Z,9.00
2023-04-15T08:04:16.599Z,8.30
2023-04-15T08:06:44.223Z,8.80
2023-04-15T08:09:11.510Z,9.20
2023-04-15T08:11:38.550Z,9.00
2023-04-15T08:14:06.028Z,9.70
2023-04-15T08:16:33.447Z,9.40
2023-04-15T08:19:00.663Z,8.90
2023-04-15T08:21:27.983Z,9.10
2023-04-15T08:23:55.398Z,9.00
2023-04-15T08:26:22.824Z,8.70
2023-04-15T08:28:52.787Z,8.60
2023-04-15T08:31:20.120Z,8.50
2023-04-15T08:33:47.255Z,9.20
2023-04-15T08:36:14.395Z,9.00
2023-04-15T08:38:41.930Z,8.90
2023-04-15T08:41:20.290Z,9.00
2023-04-15T08:44:07.774Z,8.70
2023-04-15T08:46:35.116Z,9.50
2023-04-15T08:49:05.022Z,10.50
2023-04-15T08:51:33.947Z,11.20
2023-04-15T08:54:02.771Z,10.50
2023-04-15T08:56:33.042Z,10.10
2023-04-15T08:59:00.879Z,10.90
2023-04-15T09:01:28.869Z,10.70
2023-04-15T09:03:57.697Z,10.50
2023-04-15T09:06:26.363Z,10.50
2023-04-15T09:08:53.525Z,10.60
2023-04-15T09:11:22.412Z,9.90
2023-04-15T09:13:49.944Z,10.40
2023-04-15T09:16:17.417Z,9.80
2023-04-15T09:18:44.458Z,9.60
2023-04-15T09:21:13.243Z,10.20
2023-04-15T09:23:53.965Z,10.50
2023-04-15T09:26:30.812Z,10.40
2023-04-15T09:29:06.872Z,10.60
2023-04-15T09:31:34.235Z,10.30
2023-04-15T09:34:01.737Z,10.70
2023-04-15T09:36:31.792Z,11.10
2023-04-15T09:39:00.660Z,11.40
2023-04-15T09:41:28.625Z,11.30
2023-04-15T09:43:56.366Z,11.60
2023-04-15T09:46:45.061Z,11.70
2023-04-15T09:49:16.266Z,10.80
2023-04-15T09:51:54.128Z,9.90
2023-04-15T09:54:25.039Z,10.70
2023-04-15T09:56:51.978Z,10.40
2023-04-15T09:59:20.120Z,10.40
2023-04-15T10:01:48.077Z,10.70
2023-04-15T10:04:15.933Z,11.00
2023-04-15T10:06:43.362Z,11.20
2023-04-15T10:09:10.646Z,11.30
2023-04-15T10:11:37.947Z,11.60
2023-04-15T10:14:06.503Z,11.80
2023-04-15T10:16:35.226Z,10.90
2023-04-15T10:19:04.547Z,10.30
2023-04-15T10:21:32.279Z,10.80
2023-04-15T10:24:02.032Z,10.60
2023-04-15T10:26:29.510Z,9.70
2023-04-15T10:28:57.268Z,10.20
2023-04-15T10:31:25.847Z,10.10
2023-04-15T10:33:56.405Z,10.50
2023-04-15T10:36:23.610Z,10.20
2023-04-15T10:38:50.699Z,9.40
2023-04-15T10:41:24.800Z,10.00
2023-04-15T10:43:58.006Z,10.30
2023-04-15T10:46:39.223Z,10.40
2023-04-15T10:49:11.836Z,10.80
2023-04-15T10:51:43.487Z,10.60
2023-04-15T10:54:15.767Z,10.10
2023-04-15T10:56:46.473Z,9.50
2023-04-15T10:59:13.525Z,9.60
2023-04-15T11:02:03.632Z,10.40
2023-04-15T11:04:51.776Z,10.20
2023-04-15T11:07:44.867Z,10.60
2023-04-15T11:10:17.553Z,10.90
2023-04-15T11:12:45.885Z,10.70
2023-04-15T11:15:43.139Z,10.10
2023-04-15T11:18:17.372Z,10.50
2023-04-15T11:21:02.477Z,10.10
2023-04-15T11:23:40.146Z,10.60
2023-04-15T11:26:12.500Z,10.90
2023-04-15T11:28:41.804Z,10.30
2023-04-15T11:31:11.434Z,10.00
2023-04-15T11:33:44.894Z,10.10
2023-04-15T11:36:12.683Z,10.10
2023-04-15T11:38:43.129Z,10.20
2023-04-15T11:41:10.218Z,10.30
2023-04-15T11:43:37.454Z,10.00
2023-04-15T11:46:04.822Z,10.00
2023-04-15T11:48:36.388Z,10.20
2023-04-15T11:51:07.760Z,10.10
2023-04-15T11:53:48.748Z,10.00
2023-04-15T11:56:21.182Z,10.40
2023-04-15T11:58:51.038Z,10.10
2023-04-15T12:01:18.697Z,9.70
2023-04-15T12:03:47.451Z,9.00
2023-04-15T12:06:19.761Z,8.40
2023-04-15T12:08:56.152Z,9.00
2023-04-15T12:11:30.480Z,8.90
2023-04-15T12:14:06.220Z,9.40
2023-04-15T12:16:45.960Z,9.60
2023-04-15T12:19:45.470Z,9.90
2023-04-15T12:22:15.398Z,9.30
2023-04-15T12:24:44.438Z,9.40
2023-04-15T12:27:12.728Z,9.30
2023-04-15T12:29:41.363Z,9.70
2023-04-15T12:32:16.017Z,10.60
2023-04-15T12:34:51.014Z,10.00
2023-04-15T12:37:18.205Z,9.50
2023-04-15T12:39:48.099Z,9.50
2023-04-15T12:42:17.626Z,9.90
2023-04-15T12:44:46.355Z,9.90
2023-04-15T12:47:13.759Z,9.70
2023-04-15T12:49:41.394Z,9.50
2023-04-15T12:52:08.893Z,9.70
2023-04-15T12:54:36.537Z,10.00
2023-04-15T12:57:06.807Z,10.10
2023-04-15T12:59:34.723Z,9.50
2023-04-15T13:02:03.051Z,9.30
2023-04-15T13:04:31.514Z,9.30
2023-04-15T13:06:58.926Z,9.50
2023-04-15T13:09:26.091Z,9.00
2023-04-15T13:11:54.728Z,8.90
2023-04-15T13:14:22.040Z,9.20
2023-04-15T13:16:49.010Z,9.20
2023-04-15T13:19:16.056Z,8.90
2023-04-15T13:21:43.108Z,9.50
2023-04-15T13:24:10.052Z,8.90
2023-04-15T13:26:38.142Z,8.60
2023-04-15T13:29:05.340Z,8.30
2023-04-15T13:31:32.582Z,8.60
2023-04-15T13:33:59.704Z,8.40
2023-04-15T13:36:27.538Z,8.80
2023-04-15T13:38:54.838Z,8.70
2023-04-15T13:41:22.058Z,9.00
2023-04-15T13:43:49.112Z,9.20
2023-04-15T13:46:16.373Z,9.60
2023-04-15T13:48:43.481Z,9.50
2023-04-15T13:51:10.519Z,9.50
2023-04-15T13:53:39.032Z,8.90
2023-04-15T13:56:10.492Z,8.80
2023-04-15T13:58:38.314Z,8.70
2023-04-15T14:01:06.957Z,8.20
2023-04-15T14:03:36.988Z,8.10
2023-04-15T14:06:04.796Z,8.40
2023-04-15T14:08:31.882Z,8.70
2023-04-15T14:10:59.166Z,9.20
2023-04-15T14:13:26.193Z,9.60
2023-04-15T14:15:53.340Z,9.50
2023-04-15T14:18:20.829Z,9.30
2023-04-15T14:20:47.917Z,8.90
2023-04-15T14:23:14.926Z,8.90
2023-04-15T14:25:42.021Z,8.50
2023-04-15T14:28:09.065Z,8.70
2023-04-15T14:30:36.155Z,8.50
2023-04-15T14:33:03.937Z,8.20
2023-04-15T14:35:31.469Z,8.10
2023-04-15T14:37:58.516Z,8.70
2023-04-15T14:40:25.922Z,8.20
2023-04-15T14:42:52.883Z,8.20
2023-04-15T14:45:19.882Z,8.00
2023-04-15T14:47:47.518Z,8.40
2023-04-15T14:50:14.639Z,8.50
2023-04-15T14:52:41.753Z,8.20
2023-04-15T14:55:12.884Z,8.50
2023-04-15T14:57:41.345Z,8.70
2023-04-15T15:00:10.072Z,8.90
2023-04-15T15:02:40.537Z,8.30
2023-04-15T15:05:08.976Z,8.20
2023-04-15T15:07:37.385Z,8.10
2023-04-15T15:10:05.086Z,8.30
2023-04-15T15:12:33.140Z,8.30
2023-04-15T15:15:01.625Z,8.30
2023-04-15T15:17:30.570Z,8.00
2023-04-15T15:19:57.934Z,7.70
2023-04-15T15:22:26.232Z,7.80
2023-04-15T15:24:53.810Z,8.20
2023-04-15T15:27:21.267Z,8.40
2023-04-15T15:29:49.087Z,8.30
2023-04-15T15:32:16.641Z,8.30
2023-04-15T15:34:43.690Z,8.40
2023-04-15T15:37:10.881Z,8.40
2023-04-15T15:39:37.928Z,8.50
2023-04-15T15:42:04.923Z,8.30
2023-04-15T15:44:33.489Z,7.80
2023-04-15T15:47:01.731Z,7.80
2023-04-15T15:49:29.029Z,7.70
2023-04-15T15:51:56.499Z,7.70
2023-04-15T15:54:24.454Z,7.60
2023-04-15T15:56:51.372Z,7.80
2023-04-15T15:59:18.355Z,7.60
2023-04-15T16:01:45.602Z,7.50
2023-04-15T16:04:12.894Z,7.80
2023-04-15T16:06:40.793Z,7.90
2023-04-15T16:09:08.031Z,7.70
2023-04-15T16:11:35.069Z,7.60
2023-04-15T16:14:02.170Z,7.70
2023-04-15T16:16:30.225Z,7.50
2023-04-15T16:19:00.381Z,7.50
2023-04-15T16:21:27.456Z,7.60
2023-04-15T16:23:54.515Z,7.70
2023-04-15T16:26:21.879Z,7.70
2023-04-15T16:28:48.899Z,7.70
2023-04-15T16:31:15.955Z,7.40
2023-04-15T16:33:42.891Z,7.40
2023-04-15T16:36:10.014Z,7.20
2023-04-15T16:38:37.135Z,6.90
2023-04-15T16:41:04.137Z,6.70
2023-04-15T16:43:31.414Z,6.90
2023-04-15T16:45:58.474Z,7.10
2023-04-15T16:48:25.659Z,7.00
2023-04-15T16:50:52.784Z,6.90
2023-04-15T16:53:19.831Z,7.00
2023-04-15T16:55:46.803Z,6.70
2023-04-15T16:58:13.865Z,6.70
2023-04-15T17:00:40.981Z,6.70
2023-04-15T17:03:08.278Z,6.70
2023-04-15T17:05:35.450Z,6.60
2023-04-15T17:08:02.567Z,6.60
2023-04-15T17:10:30.708Z,6.40
2023-04-15T17:12:58.363Z,6.50
2023-04-15T17:15:26.322Z,6.50
2023-04-15T17:17:53.623Z,6.30
2023-04-15T17:20:20.898Z,6.30
2023-04-15T17:22:48.889Z,6.40
2023-04-15T17:25:16.100Z,6.40
2023-04-15T17:27:43.449Z,6.40
2023-04-15T17:30:10.798Z,6.40
2023-04-15T17:32:40.245Z,6.30
2023-04-15T17:35:07.902Z,6.10
2023-04-15T17:37:35.433Z,6.00
2023-04-15T17:40:02.738Z,6.00
2023-04-15T17:42:29.720Z,5.90
2023-04-15T17:44:56.647Z,5.90
2023-04-15T17:47:23.689Z,5.80
2023-04-15T17:49:50.657Z,5.80
2023-04-15T17:52:17.797Z,5.70
2023-04-15T17:54:46.214Z,5.60
2023-04-15T17:57:13.249Z,5.70
2023-04-15T17:59:44.103Z,5.70
2023-04-15T18:02:11.844Z,5.60
2023-04-15T18:04:39.701Z,5.60
2023-04-15T18:07:07.019Z,5.50
2023-04-15T18:09:34.305Z,5.40
2023-04-15T18:12:02.169Z,5.50
2023-04-15T18:14:34.537Z,5.50
2023-04-15T18:17:04.356Z,5.50
2023-04-15T18:19:32.087Z,5.50
2023-04-15T18:22:00.604Z,5.60
2023-04-15T18:24:28.108Z,5.40
2023-04-15T18:26:55.091Z,5.30
2023-04-15T18:29:22.443Z,5.30
2023-04-15T18:31:50.007Z,5.20
2023-04-15T18:34:17.022Z,5.30
2023-04-15T18:36:44.096Z,5.30
2023-04-15T18:39:11.109Z,5.20
2023-04-15T18:41:38.202Z,5.20
2023-04-15T18:44:07.850Z,5.10
2023-04-15T18:46:34.882Z,5.10
2023-04-15T18:49:05.285Z,5.20
2023-04-15T18:51:32.787Z,5.20
2023-04-15T18:53:59.835Z,5.20
2023-04-15T18:56:26.887Z,5.10
2023-04-15T18:59:18.442Z,5.00
2023-04-15T19:01:41.249Z,5.10
2023-04-15T19:04:09.547Z,5.00
2023-04-15T19:06:36.630Z,5.00
2023-04-15T19:09:03.896Z,4.90
2023-04-15T19:11:31.372Z,4.90
2023-04-15T19:13:58.340Z,4.90
2023-04-15T19:16:25.399Z,4.90
2023-04-15T19:18:52.433Z,4.90
2023-04-15T19:21:19.427Z,4.80
2023-04-15T19:23:47.574Z,4.90
2023-04-15T19:26:14.640Z,4.90
2023-04-15T19:28:41.635Z,4.80
2023-04-15T19:31:08.672Z,4.70
2023-04-15T19:33:35.744Z,4.80
2023-04-15T19:36:05.404Z,4.70
2023-04-15T19:38:33.400Z,4.70
2023-04-15T19:41:00.413Z,4.70
2023-04-15T19:43:27.440Z,4.70
2023-04-15T19:45:54.965Z,4.60
2023-04-15T19:48:23.175Z,4.50
2023-04-15T19:50:50.280Z,4.50
2023-04-15T19:53:17.361Z,4.60
2023-04-15T19:55:44.389Z,4.50
2023-04-15T19:58:11.479Z,4.50
2023-04-15T20:00:38.538Z,4.50
2023-04-15T20:03:05.905Z,4.50
2023-04-15T20:05:33.012Z,4.50
2023-04-15T20:08:01.755Z,4.50
2023-04-15T20:10:28.849Z,4.50
2023-04-15T20:12:55.816Z,4.40
2023-04-15T20:15:24.299Z,4.40
2023-04-15T20:17:51.648Z,4.40
2023-04-15T20:20:19.100Z,4.40
2023-04-15T20:22:46.160Z,4.40
2023-04-15T20:25:13.203Z,4.40
2023-04-15T20:27:41.040Z,4.40
2023-04-15T20:30:08.597Z,4.40
2023-04-15T20:32:36.296Z,4.40
2023-04-15T20:35:04.583Z,4.40
2023-04-15T20:37:33.814Z,4.30
2023-04-15T20:40:01.683Z,4.30
2023-04-15T20:42:32.502Z,4.30
2023-04-15T20:44:59.953Z,4.30
2023-04-15T20:47:27.005Z,4.30
2023-04-15T20:49:54.302Z,4.30
2023-04-15T20:52:21.434Z,4.20
2023-04-15T20:54:48.424Z,4.30
2023-04-15T20:57:15.505Z,4.30
2023-04-15T20:59:42.574Z,4.30
2023-04-15T21:02:09.712Z,4.30
2023-04-15T21:04:38.450Z,4.30
2023-04-15T21:07:05.764Z,4.20
2023-04-15T21:09:32.764Z,4.30
2023-04-15T21:12:01.942Z,4.20
2023-04-15T21:14:29.537Z,4.20
2023-04-15T21:16:59.608Z,4.30
2023-04-15T21:19:26.701Z,4.30
2023-04-15T21:21:53.849Z,4.30
2023-04-15T21:24:20.817Z,4.20
2023-04-15T21:26:47.828Z,4.20
2023-04-15T21:29:15.089Z,4.20
2023-04-15T21:31:42.290Z,4.20
2023-04-15T21:34:10.043Z,4.20
2023-04-15T21:36:37.903Z,4.10
2023-04-15T21:39:06.010Z,4.20
2023-04-15T21:41:33.280Z,4.20
2023-04-15T21:44:00.578Z,4.20
2023-04-15T21:46:32.820Z,4.20
2023-04-15T21:49:02.193Z,4.10
2023-04-15T21:51:29.196Z,4.10
2023-04-15T21:53:56.198Z,4.00
2023-04-15T21:56:24.422Z,4.00
2023-04-15T21:58:54.419Z,4.00
2023-04-15T22:01:21.581Z,4.00
2023-04-15T22:03:49.007Z,4.00
2023-04-15T22:06:16.419Z,4.00
2023-04-15T22:08:53.136Z,4.00
2023-04-15T22:11:29.938Z,4.00
2023-04-15T22:13:57.985Z,4.00
2023-04-15T22:19:54.094Z,3.90
2023-04-15T22:22:54.306Z,3.90
2023-04-15T22:25:26.435Z,3.90
2023-04-15T22:28:04.428Z,3.90
2023-04-15T22:30:34.520Z,3.90
2023-04-15T22:33:08.109Z,3.90
2023-04-15T22:36:00.997Z,3.90
2023-04-15T22:38:35.450Z,3.80
2023-04-15T22:41:13.409Z,3.80
2023-04-15T22:44:01.945Z,3.80
2023-04-15T22:47:10.645Z,3.90
2023-04-15T22:50:00.146Z,3.80
2023-04-15T22:52:32.772Z,3.80
2023-04-15T23:01:11.056Z,3.70
2023-04-15T23:04:31.986Z,3.70
2023-04-15T23:14:14.294Z,3.50
2023-04-15T23:16:43.310Z,3.50
2023-04-15T23:24:58.941Z,3.40
2023-04-15T23:27:58.641Z,3.40
2023-04-15T23:33:55.370Z,3.20
2023-04-15T23:36:22.511Z,3.30
2023-04-15T23:38:49.437Z,3.30
2023-04-15T23:41:16.509Z,3.30
2023-04-15T23:43:43.453Z,3.30
2023-04-15T23:46:11.953Z,3.30
2023-04-15T23:48:39.290Z,3.30
2023-04-15T23:51:06.726Z,3.20
2023-04-15T23:53:33.828Z,3.20
2023-04-15T23:56:01.574Z,3.10
2023-04-15T23:58:28.722Z,3.10
